sensor_id;sensor_type;location;lat;lon;timestamp;P1;durP1;ratioP1;P2;durP2;ratioP2
72198;SDS011;60103;51.014;16.992;2023-05-23T00:01:44;10.50;;;5.50;;
72198;SDS011;60103;51.014;16.992;2023-05-23T00:04:14;12.30;;;4.90;;
72198;SDS011;60103;51.014;16.992;2023-05-23T00:06:45;9.70;;;4.40;;
72198;SDS011;60103;51.014;16.992;2023-05-23T00:09:18;11.50;;;4.80;;
72198;SDS011;60103;51.014;16.992;2023-05-23T00:11:47;11.10;;;5.30;;
72198;SDS011;60103;51.014;16.992;2023-05-23T00:14:15;11.40;;;5.30;;
72198;SDS011;60103;51.014;16.992;2023-05-23T00:16:45;11.10;;;5.10;;
72198;SDS011;60103;51.014;16.992;2023-05-23T00:19:16;12.50;;;5.80;;
72198;SDS011;60103;51.014;16.992;2023-05-23T00:21:46;11.30;;;5.20;;
72198;SDS011;60103;51.014;16.992;2023-05-23T00:24:15;15.80;;;5.30;;
72198;SDS011;60103;51.014;16.992;2023-05-23T00:26:45;11.30;;;5.20;;
72198;SDS011;60103;51.014;16.992;2023-05-23T00:29:14;11.50;;;5.00;;
72198;SDS011;60103;51.014;16.992;2023-05-23T00:31:44;11.50;;;5.70;;
72198;SDS011;60103;51.014;16.992;2023-05-23T00:34:14;12.80;;;5.40;;
72198;SDS011;60103;51.014;16.992;2023-05-23T00:36:46;11.20;;;5.60;;
72198;SDS011;60103;51.014;16.992;2023-05-23T00:39:17;11.30;;;5.20;;
72198;SDS011;60103;51.014;16.992;2023-05-23T00:41:48;10.80;;;5.10;;
72198;SDS011;60103;51.014;16.992;2023-05-23T00:44:19;11.30;;;5.10;;
72198;SDS011;60103;51.014;16.992;2023-05-23T00:46:50;12.60;;;5.40;;
72198;SDS011;60103;51.014;16.992;2023-05-23T00:49:21;13.20;;;5.00;;
72198;SDS011;60103;51.014;16.992;2023-05-23T00:51:50;13.70;;;5.00;;
72198;SDS011;60103;51.014;16.992;2023-05-23T00:54:25;10.30;;;5.10;;
72198;SDS011;60103;51.014;16.992;2023-05-23T00:56:58;11.40;;;5.20;;
72198;SDS011;60103;51.014;16.992;2023-05-23T00:59:27;14.30;;;5.70;;
72198;SDS011;60103;51.014;16.992;2023-05-23T01:01:56;12.40;;;5.40;;
72198;SDS011;60103;51.014;16.992;2023-05-23T01:04:25;12.30;;;5.20;;
72198;SDS011;60103;51.014;16.992;2023-05-23T01:06:55;11.90;;;5.80;;
72198;SDS011;60103;51.014;16.992;2023-05-23T01:09:25;12.10;;;5.20;;
72198;SDS011;60103;51.014;16.992;2023-05-23T01:14:48;11.40;;;5.10;;
72198;SDS011;60103;51.014;16.992;2023-05-23T01:17:25;11.70;;;5.60;;
72198;SDS011;60103;51.014;16.992;2023-05-23T01:20:16;12.50;;;5.40;;
72198;SDS011;60103;51.014;16.992;2023-05-23T01:23:37;12.70;;;5.40;;
72198;SDS011;60103;51.014;16.992;2023-05-23T01:28:27;10.50;;;5.20;;
72198;SDS011;60103;51.014;16.992;2023-05-23T01:30:59;12.40;;;5.80;;
72198;SDS011;60103;51.014;16.992;2023-05-23T01:33:30;11.30;;;5.40;;
72198;SDS011;60103;51.014;16.992;2023-05-23T01:36:01;12.50;;;6.00;;
72198;SDS011;60103;51.014;16.992;2023-05-23T01:38:30;13.20;;;6.00;;
72198;SDS011;60103;51.014;16.992;2023-05-23T01:41:00;11.20;;;5.80;;
72198;SDS011;60103;51.014;16.992;2023-05-23T01:43:28;15.20;;;5.90;;
72198;SDS011;60103;51.014;16.992;2023-05-23T01:45:57;13.00;;;6.10;;
72198;SDS011;60103;51.014;16.992;2023-05-23T01:48:27;13.30;;;6.00;;
72198;SDS011;60103;51.014;16.992;2023-05-23T01:50:57;12.40;;;6.30;;
72198;SDS011;60103;51.014;16.992;2023-05-23T01:53:26;12.30;;;5.90;;
72198;SDS011;60103;51.014;16.992;2023-05-23T01:55:56;13.50;;;6.00;;
72198;SDS011;60103;51.014;16.992;2023-05-23T01:58:25;11.30;;;5.80;;
72198;SDS011;60103;51.014;16.992;2023-05-23T02:00:54;12.20;;;6.80;;
72198;SDS011;60103;51.014;16.992;2023-05-23T02:03:23;12.40;;;6.10;;
72198;SDS011;60103;51.014;16.992;2023-05-23T02:05:52;11.90;;;5.90;;
72198;SDS011;60103;51.014;16.992;2023-05-23T02:08:21;11.70;;;5.90;;
72198;SDS011;60103;51.014;16.992;2023-05-23T02:10:49;12.00;;;5.70;;
72198;SDS011;60103;51.014;16.992;2023-05-23T02:13:20;12.00;;;6.60;;
72198;SDS011;60103;51.014;16.992;2023-05-23T02:15:48;12.10;;;5.90;;
72198;SDS011;60103;51.014;16.992;2023-05-23T02:18:17;10.90;;;5.50;;
72198;SDS011;60103;51.014;16.992;2023-05-23T02:20:49;12.30;;;5.90;;
72198;SDS011;60103;51.014;16.992;2023-05-23T02:23:18;10.80;;;5.70;;
72198;SDS011;60103;51.014;16.992;2023-05-23T02:25:47;13.40;;;6.20;;
72198;SDS011;60103;51.014;16.992;2023-05-23T02:28:16;12.40;;;6.00;;
72198;SDS011;60103;51.014;16.992;2023-05-23T02:30:45;11.20;;;5.50;;
72198;SDS011;60103;51.014;16.992;2023-05-23T02:33:14;13.60;;;5.80;;
72198;SDS011;60103;51.014;16.992;2023-05-23T02:35:44;11.10;;;5.80;;
72198;SDS011;60103;51.014;16.992;2023-05-23T02:38:15;14.60;;;6.60;;
72198;SDS011;60103;51.014;16.992;2023-05-23T02:40:43;12.20;;;6.60;;
72198;SDS011;60103;51.014;16.992;2023-05-23T02:43:12;12.30;;;6.40;;
72198;SDS011;60103;51.014;16.992;2023-05-23T02:45:41;12.70;;;6.50;;
72198;SDS011;60103;51.014;16.992;2023-05-23T02:48:10;11.70;;;5.80;;
72198;SDS011;60103;51.014;16.992;2023-05-23T02:50:42;13.50;;;6.40;;
72198;SDS011;60103;51.014;16.992;2023-05-23T02:53:10;13.10;;;6.80;;
72198;SDS011;60103;51.014;16.992;2023-05-23T02:55:39;14.10;;;6.60;;
72198;SDS011;60103;51.014;16.992;2023-05-23T02:58:10;12.70;;;6.10;;
72198;SDS011;60103;51.014;16.992;2023-05-23T03:00:39;13.30;;;5.80;;
72198;SDS011;60103;51.014;16.992;2023-05-23T03:03:11;11.80;;;5.80;;
72198;SDS011;60103;51.014;16.992;2023-05-23T03:05:40;12.90;;;6.00;;
72198;SDS011;60103;51.014;16.992;2023-05-23T03:08:09;12.30;;;6.70;;
72198;SDS011;60103;51.014;16.992;2023-05-23T03:10:39;14.60;;;6.40;;
72198;SDS011;60103;51.014;16.992;2023-05-23T03:13:10;12.90;;;6.40;;
72198;SDS011;60103;51.014;16.992;2023-05-23T03:15:39;12.60;;;6.50;;
72198;SDS011;60103;51.014;16.992;2023-05-23T03:18:08;11.30;;;5.30;;
72198;SDS011;60103;51.014;16.992;2023-05-23T03:20:37;13.00;;;6.30;;
72198;SDS011;60103;51.014;16.992;2023-05-23T03:23:06;13.70;;;6.50;;
72198;SDS011;60103;51.014;16.992;2023-05-23T03:25:35;13.70;;;6.40;;
72198;SDS011;60103;51.014;16.992;2023-05-23T03:28:04;14.40;;;6.70;;
72198;SDS011;60103;51.014;16.992;2023-05-23T03:30:33;13.40;;;6.60;;
72198;SDS011;60103;51.014;16.992;2023-05-23T03:33:02;12.60;;;6.30;;
72198;SDS011;60103;51.014;16.992;2023-05-23T03:35:32;11.60;;;6.10;;
72198;SDS011;60103;51.014;16.992;2023-05-23T03:38:01;13.60;;;6.30;;
72198;SDS011;60103;51.014;16.992;2023-05-23T03:40:30;13.70;;;6.50;;
72198;SDS011;60103;51.014;16.992;2023-05-23T03:43:07;12.20;;;6.50;;
72198;SDS011;60103;51.014;16.992;2023-05-23T03:45:38;12.30;;;6.10;;
72198;SDS011;60103;51.014;16.992;2023-05-23T03:48:12;12.90;;;5.80;;
72198;SDS011;60103;51.014;16.992;2023-05-23T03:50:41;14.70;;;6.00;;
72198;SDS011;60103;51.014;16.992;2023-05-23T03:53:11;13.10;;;7.00;;
72198;SDS011;60103;51.014;16.992;2023-05-23T03:55:40;12.20;;;6.30;;
72198;SDS011;60103;51.014;16.992;2023-05-23T03:58:11;13.70;;;6.40;;
72198;SDS011;60103;51.014;16.992;2023-05-23T04:00:41;11.80;;;6.60;;
72198;SDS011;60103;51.014;16.992;2023-05-23T04:03:11;12.70;;;6.40;;
72198;SDS011;60103;51.014;16.992;2023-05-23T04:05:43;11.90;;;6.10;;
72198;SDS011;60103;51.014;16.992;2023-05-23T04:08:12;13.40;;;7.10;;
72198;SDS011;60103;51.014;16.992;2023-05-23T04:10:41;12.80;;;6.90;;
72198;SDS011;60103;51.014;16.992;2023-05-23T04:13:10;12.60;;;6.70;;
72198;SDS011;60103;51.014;16.992;2023-05-23T04:15:39;14.00;;;6.90;;
72198;SDS011;60103;51.014;16.992;2023-05-23T04:18:11;14.40;;;7.20;;
72198;SDS011;60103;51.014;16.992;2023-05-23T04:20:40;15.50;;;7.00;;
72198;SDS011;60103;51.014;16.992;2023-05-23T04:23:10;16.10;;;6.80;;
72198;SDS011;60103;51.014;16.992;2023-05-23T04:25:41;13.80;;;7.30;;
72198;SDS011;60103;51.014;16.992;2023-05-23T04:28:21;13.60;;;7.20;;
72198;SDS011;60103;51.014;16.992;2023-05-23T04:30:50;13.00;;;7.00;;
72198;SDS011;60103;51.014;16.992;2023-05-23T04:33:24;13.70;;;7.10;;
72198;SDS011;60103;51.014;16.992;2023-05-23T04:35:53;14.70;;;7.20;;
72198;SDS011;60103;51.014;16.992;2023-05-23T04:38:22;16.20;;;7.60;;
72198;SDS011;60103;51.014;16.992;2023-05-23T04:40:52;14.70;;;7.80;;
72198;SDS011;60103;51.014;16.992;2023-05-23T04:43:56;13.70;;;7.60;;
72198;SDS011;60103;51.014;16.992;2023-05-23T04:46:33;15.50;;;7.30;;
72198;SDS011;60103;51.014;16.992;2023-05-23T04:49:35;15.30;;;7.40;;
72198;SDS011;60103;51.014;16.992;2023-05-23T04:52:04;13.90;;;7.50;;
72198;SDS011;60103;51.014;16.992;2023-05-23T04:54:33;14.90;;;7.70;;
72198;SDS011;60103;51.014;16.992;2023-05-23T04:57:05;13.80;;;8.20;;
72198;SDS011;60103;51.014;16.992;2023-05-23T04:59:33;14.50;;;7.80;;
72198;SDS011;60103;51.014;16.992;2023-05-23T05:02:03;14.50;;;6.50;;
72198;SDS011;60103;51.014;16.992;2023-05-23T05:04:33;13.50;;;7.40;;
72198;SDS011;60103;51.014;16.992;2023-05-23T05:07:02;13.60;;;7.40;;
72198;SDS011;60103;51.014;16.992;2023-05-23T05:09:31;12.50;;;7.20;;
72198;SDS011;60103;51.014;16.992;2023-05-23T05:12:00;14.30;;;7.70;;
72198;SDS011;60103;51.014;16.992;2023-05-23T05:14:29;15.70;;;7.90;;
72198;SDS011;60103;51.014;16.992;2023-05-23T05:16:59;12.40;;;6.50;;
72198;SDS011;60103;51.014;16.992;2023-05-23T05:19:37;12.80;;;6.70;;
72198;SDS011;60103;51.014;16.992;2023-05-23T05:22:06;11.70;;;6.50;;
72198;SDS011;60103;51.014;16.992;2023-05-23T05:24:35;12.70;;;6.30;;
72198;SDS011;60103;51.014;16.992;2023-05-23T05:27:04;14.20;;;7.40;;
72198;SDS011;60103;51.014;16.992;2023-05-23T05:29:35;13.20;;;7.60;;
72198;SDS011;60103;51.014;16.992;2023-05-23T05:32:04;15.80;;;7.60;;
72198;SDS011;60103;51.014;16.992;2023-05-23T05:34:36;13.10;;;7.70;;
72198;SDS011;60103;51.014;16.992;2023-05-23T05:37:06;15.00;;;8.30;;
72198;SDS011;60103;51.014;16.992;2023-05-23T05:39:36;14.40;;;7.70;;
72198;SDS011;60103;51.014;16.992;2023-05-23T05:42:06;13.60;;;7.60;;
72198;SDS011;60103;51.014;16.992;2023-05-23T05:44:35;14.90;;;8.20;;
72198;SDS011;60103;51.014;16.992;2023-05-23T05:47:05;14.20;;;7.70;;
72198;SDS011;60103;51.014;16.992;2023-05-23T05:49:34;15.00;;;8.00;;
72198;SDS011;60103;51.014;16.992;2023-05-23T05:52:05;13.80;;;7.80;;
72198;SDS011;60103;51.014;16.992;2023-05-23T05:54:34;15.80;;;7.70;;
72198;SDS011;60103;51.014;16.992;2023-05-23T05:57:03;14.00;;;7.20;;
72198;SDS011;60103;51.014;16.992;2023-05-23T05:59:33;13.60;;;7.30;;
72198;SDS011;60103;51.014;16.992;2023-05-23T06:02:02;14.60;;;7.40;;
72198;SDS011;60103;51.014;16.992;2023-05-23T06:04:31;13.80;;;6.70;;
72198;SDS011;60103;51.014;16.992;2023-05-23T06:07:00;14.60;;;7.90;;
72198;SDS011;60103;51.014;16.992;2023-05-23T06:09:29;15.10;;;8.20;;
72198;SDS011;60103;51.014;16.992;2023-05-23T06:11:58;15.40;;;8.40;;
72198;SDS011;60103;51.014;16.992;2023-05-23T06:14:28;16.00;;;7.60;;
72198;SDS011;60103;51.014;16.992;2023-05-23T06:16:57;15.80;;;8.20;;
72198;SDS011;60103;51.014;16.992;2023-05-23T06:19:27;15.80;;;8.20;;
72198;SDS011;60103;51.014;16.992;2023-05-23T06:21:56;15.80;;;8.60;;
72198;SDS011;60103;51.014;16.992;2023-05-23T06:24:25;15.90;;;8.30;;
72198;SDS011;60103;51.014;16.992;2023-05-23T06:26:54;16.30;;;7.20;;
72198;SDS011;60103;51.014;16.992;2023-05-23T06:29:24;14.90;;;8.60;;
72198;SDS011;60103;51.014;16.992;2023-05-23T06:31:55;15.90;;;8.10;;
72198;SDS011;60103;51.014;16.992;2023-05-23T06:34:27;14.50;;;7.80;;
72198;SDS011;60103;51.014;16.992;2023-05-23T06:36:56;15.70;;;8.20;;
72198;SDS011;60103;51.014;16.992;2023-05-23T06:39:25;16.10;;;8.60;;
72198;SDS011;60103;51.014;16.992;2023-05-23T06:41:54;14.90;;;8.60;;
72198;SDS011;60103;51.014;16.992;2023-05-23T06:44:24;17.00;;;8.60;;
72198;SDS011;60103;51.014;16.992;2023-05-23T06:46:54;16.60;;;9.00;;
72198;SDS011;60103;51.014;16.992;2023-05-23T06:49:25;14.50;;;8.80;;
72198;SDS011;60103;51.014;16.992;2023-05-23T06:51:57;19.80;;;9.00;;
72198;SDS011;60103;51.014;16.992;2023-05-23T06:54:26;15.60;;;9.10;;
72198;SDS011;60103;51.014;16.992;2023-05-23T06:56:55;15.70;;;8.40;;
72198;SDS011;60103;51.014;16.992;2023-05-23T06:59:25;16.60;;;9.50;;
72198;SDS011;60103;51.014;16.992;2023-05-23T07:01:55;17.50;;;9.30;;
72198;SDS011;60103;51.014;16.992;2023-05-23T07:04:24;15.60;;;8.70;;
72198;SDS011;60103;51.014;16.992;2023-05-23T07:06:54;18.10;;;8.30;;
72198;SDS011;60103;51.014;16.992;2023-05-23T07:09:23;16.40;;;8.30;;
72198;SDS011;60103;51.014;16.992;2023-05-23T07:11:58;16.30;;;8.50;;
72198;SDS011;60103;51.014;16.992;2023-05-23T07:14:27;16.00;;;8.50;;
72198;SDS011;60103;51.014;16.992;2023-05-23T07:16:56;17.20;;;8.30;;
72198;SDS011;60103;51.014;16.992;2023-05-23T07:19:26;14.60;;;8.50;;
72198;SDS011;60103;51.014;16.992;2023-05-23T07:21:55;13.60;;;7.80;;
72198;SDS011;60103;51.014;16.992;2023-05-23T07:24:24;15.00;;;7.80;;
72198;SDS011;60103;51.014;16.992;2023-05-23T07:26:55;13.20;;;7.60;;
72198;SDS011;60103;51.014;16.992;2023-05-23T07:29:24;15.00;;;7.60;;
72198;SDS011;60103;51.014;16.992;2023-05-23T07:31:53;14.80;;;7.70;;
72198;SDS011;60103;51.014;16.992;2023-05-23T07:34:22;14.60;;;7.50;;
72198;SDS011;60103;51.014;16.992;2023-05-23T07:36:56;15.00;;;7.30;;
72198;SDS011;60103;51.014;16.992;2023-05-23T07:39:26;15.10;;;6.90;;
72198;SDS011;60103;51.014;16.992;2023-05-23T07:41:56;14.90;;;7.60;;
72198;SDS011;60103;51.014;16.992;2023-05-23T07:44:31;12.70;;;7.20;;
72198;SDS011;60103;51.014;16.992;2023-05-23T07:47:01;12.20;;;6.60;;
72198;SDS011;60103;51.014;16.992;2023-05-23T07:49:30;12.50;;;6.90;;
72198;SDS011;60103;51.014;16.992;2023-05-23T07:52:00;13.00;;;6.70;;
72198;SDS011;60103;51.014;16.992;2023-05-23T07:54:31;12.60;;;6.80;;
72198;SDS011;60103;51.014;16.992;2023-05-23T07:57:02;14.40;;;7.10;;
72198;SDS011;60103;51.014;16.992;2023-05-23T07:59:31;14.30;;;7.60;;
72198;SDS011;60103;51.014;16.992;2023-05-23T08:02:00;13.30;;;7.40;;
72198;SDS011;60103;51.014;16.992;2023-05-23T08:04:30;14.40;;;7.20;;
72198;SDS011;60103;51.014;16.992;2023-05-23T08:07:01;13.30;;;7.00;;
72198;SDS011;60103;51.014;16.992;2023-05-23T08:09:41;13.50;;;7.00;;
72198;SDS011;60103;51.014;16.992;2023-05-23T08:12:13;12.00;;;6.90;;
72198;SDS011;60103;51.014;16.992;2023-05-23T08:14:44;13.40;;;6.90;;
72198;SDS011;60103;51.014;16.992;2023-05-23T08:17:32;12.90;;;7.20;;
72198;SDS011;60103;51.014;16.992;2023-05-23T08:20:02;11.50;;;6.40;;
72198;SDS011;60103;51.014;16.992;2023-05-23T08:22:32;13.40;;;6.60;;
72198;SDS011;60103;51.014;16.992;2023-05-23T08:25:02;12.80;;;6.10;;
72198;SDS011;60103;51.014;16.992;2023-05-23T08:27:35;12.00;;;6.60;;
72198;SDS011;60103;51.014;16.992;2023-05-23T08:30:11;13.00;;;6.50;;
72198;SDS011;60103;51.014;16.992;2023-05-23T08:32:41;12.70;;;6.90;;
72198;SDS011;60103;51.014;16.992;2023-05-23T08:35:10;15.90;;;6.70;;
72198;SDS011;60103;51.014;16.992;2023-05-23T08:37:40;12.80;;;7.30;;
72198;SDS011;60103;51.014;16.992;2023-05-23T08:40:20;13.90;;;7.00;;
72198;SDS011;60103;51.014;16.992;2023-05-23T08:43:03;13.00;;;6.90;;
72198;SDS011;60103;51.014;16.992;2023-05-23T08:45:32;14.90;;;7.00;;
72198;SDS011;60103;51.014;16.992;2023-05-23T08:48:02;12.70;;;7.00;;
72198;SDS011;60103;51.014;16.992;2023-05-23T08:50:35;11.60;;;6.50;;
72198;SDS011;60103;51.014;16.992;2023-05-23T08:53:06;13.60;;;6.50;;
72198;SDS011;60103;51.014;16.992;2023-05-23T08:55:37;14.90;;;7.70;;
72198;SDS011;60103;51.014;16.992;2023-05-23T08:58:08;15.60;;;7.50;;
72198;SDS011;60103;51.014;16.992;2023-05-23T09:00:46;13.60;;;7.50;;
72198;SDS011;60103;51.014;16.992;2023-05-23T09:03:16;15.30;;;7.80;;
72198;SDS011;60103;51.014;16.992;2023-05-23T09:06:19;12.40;;;6.80;;
72198;SDS011;60103;51.014;16.992;2023-05-23T09:08:49;14.70;;;8.00;;
72198;SDS011;60103;51.014;16.992;2023-05-23T09:11:20;15.90;;;7.80;;
72198;SDS011;60103;51.014;16.992;2023-05-23T09:13:49;13.70;;;7.70;;
72198;SDS011;60103;51.014;16.992;2023-05-23T09:16:20;15.30;;;7.20;;
72198;SDS011;60103;51.014;16.992;2023-05-23T09:18:53;14.90;;;8.10;;
72198;SDS011;60103;51.014;16.992;2023-05-23T09:21:23;13.40;;;8.40;;
72198;SDS011;60103;51.014;16.992;2023-05-23T09:24:02;16.10;;;8.30;;
72198;SDS011;60103;51.014;16.992;2023-05-23T09:26:32;12.80;;;7.90;;
72198;SDS011;60103;51.014;16.992;2023-05-23T09:29:03;15.60;;;8.30;;
72198;SDS011;60103;51.014;16.992;2023-05-23T09:31:33;16.50;;;8.80;;
72198;SDS011;60103;51.014;16.992;2023-05-23T09:34:04;17.40;;;8.80;;
72198;SDS011;60103;51.014;16.992;2023-05-23T09:36:34;16.70;;;8.40;;
72198;SDS011;60103;51.014;16.992;2023-05-23T09:39:04;14.60;;;8.60;;
72198;SDS011;60103;51.014;16.992;2023-05-23T09:41:33;14.80;;;8.10;;
72198;SDS011;60103;51.014;16.992;2023-05-23T09:44:09;18.00;;;8.50;;
72198;SDS011;60103;51.014;16.992;2023-05-23T09:46:38;14.20;;;8.30;;
72198;SDS011;60103;51.014;16.992;2023-05-23T09:49:15;17.60;;;9.20;;
72198;SDS011;60103;51.014;16.992;2023-05-23T09:51:59;19.70;;;9.80;;
72198;SDS011;60103;51.014;16.992;2023-05-23T09:54:29;16.80;;;9.30;;
72198;SDS011;60103;51.014;16.992;2023-05-23T09:56:58;14.60;;;8.60;;
72198;SDS011;60103;51.014;16.992;2023-05-23T09:59:29;16.20;;;8.20;;
72198;SDS011;60103;51.014;16.992;2023-05-23T10:02:00;15.90;;;8.50;;
72198;SDS011;60103;51.014;16.992;2023-05-23T10:04:30;16.90;;;9.00;;
72198;SDS011;60103;51.014;16.992;2023-05-23T10:07:04;15.80;;;8.20;;
72198;SDS011;60103;51.014;16.992;2023-05-23T10:09:46;15.60;;;8.90;;
72198;SDS011;60103;51.014;16.992;2023-05-23T10:15:16;17.30;;;8.90;;
72198;SDS011;60103;51.014;16.992;2023-05-23T10:17:56;14.90;;;9.00;;
72198;SDS011;60103;51.014;16.992;2023-05-23T10:20:32;17.60;;;9.30;;
72198;SDS011;60103;51.014;16.992;2023-05-23T10:23:02;31.90;;;10.50;;
72198;SDS011;60103;51.014;16.992;2023-05-23T10:25:32;15.80;;;8.10;;
72198;SDS011;60103;51.014;16.992;2023-05-23T10:28:04;15.60;;;8.70;;
72198;SDS011;60103;51.014;16.992;2023-05-23T10:30:33;14.90;;;8.60;;
72198;SDS011;60103;51.014;16.992;2023-05-23T10:33:03;14.70;;;8.50;;
72198;SDS011;60103;51.014;16.992;2023-05-23T10:40:45;21.00;;;9.60;;
72198;SDS011;60103;51.014;16.992;2023-05-23T10:45:55;14.40;;;8.20;;
72198;SDS011;60103;51.014;16.992;2023-05-23T10:53:45;13.20;;;7.70;;
72198;SDS011;60103;51.014;16.992;2023-05-23T10:56:20;12.40;;;7.20;;
72198;SDS011;60103;51.014;16.992;2023-05-23T10:58:51;12.00;;;6.40;;
72198;SDS011;60103;51.014;16.992;2023-05-23T11:01:25;11.30;;;5.60;;
72198;SDS011;60103;51.014;16.992;2023-05-23T11:03:55;10.40;;;5.70;;
72198;SDS011;60103;51.014;16.992;2023-05-23T11:06:41;11.70;;;6.40;;
72198;SDS011;60103;51.014;16.992;2023-05-23T11:09:18;12.40;;;6.60;;
72198;SDS011;60103;51.014;16.992;2023-05-23T11:12:04;11.30;;;5.80;;
72198;SDS011;60103;51.014;16.992;2023-05-23T11:22:47;11.90;;;6.90;;
72198;SDS011;60103;51.014;16.992;2023-05-23T11:25:27;13.70;;;7.60;;
72198;SDS011;60103;51.014;16.992;2023-05-23T11:28:10;14.10;;;7.50;;
72198;SDS011;60103;51.014;16.992;2023-05-23T11:30:40;14.60;;;8.20;;
72198;SDS011;60103;51.014;16.992;2023-05-23T11:33:12;12.60;;;7.60;;
72198;SDS011;60103;51.014;16.992;2023-05-23T11:35:44;13.80;;;7.80;;
72198;SDS011;60103;51.014;16.992;2023-05-23T11:38:14;13.60;;;7.90;;
72198;SDS011;60103;51.014;16.992;2023-05-23T11:40:47;13.30;;;8.00;;
72198;SDS011;60103;51.014;16.992;2023-05-23T11:43:17;13.60;;;7.70;;
72198;SDS011;60103;51.014;16.992;2023-05-23T11:45:47;14.10;;;7.30;;
72198;SDS011;60103;51.014;16.992;2023-05-23T11:48:16;12.30;;;7.00;;
72198;SDS011;60103;51.014;16.992;2023-05-23T11:50:49;13.40;;;7.90;;
72198;SDS011;60103;51.014;16.992;2023-05-23T11:53:22;13.70;;;8.40;;
72198;SDS011;60103;51.014;16.992;2023-05-23T11:55:54;14.50;;;7.60;;
72198;SDS011;60103;51.014;16.992;2023-05-23T11:58:25;13.80;;;7.10;;
72198;SDS011;60103;51.014;16.992;2023-05-23T12:01:03;12.90;;;7.00;;
72198;SDS011;60103;51.014;16.992;2023-05-23T12:03:34;13.80;;;8.30;;
72198;SDS011;60103;51.014;16.992;2023-05-23T12:06:14;13.80;;;7.50;;
72198;SDS011;60103;51.014;16.992;2023-05-23T12:08:47;12.00;;;7.00;;
72198;SDS011;60103;51.014;16.992;2023-05-23T12:11:15;14.20;;;7.70;;
72198;SDS011;60103;51.014;16.992;2023-05-23T12:13:46;15.30;;;7.50;;
72198;SDS011;60103;51.014;16.992;2023-05-23T12:16:15;20.30;;;8.50;;
72198;SDS011;60103;51.014;16.992;2023-05-23T12:18:44;18.30;;;8.60;;
72198;SDS011;60103;51.014;16.992;2023-05-23T12:21:13;17.50;;;8.40;;
72198;SDS011;60103;51.014;16.992;2023-05-23T12:23:43;18.90;;;9.00;;
72198;SDS011;60103;51.014;16.992;2023-05-23T12:26:12;13.10;;;7.00;;
72198;SDS011;60103;51.014;16.992;2023-05-23T12:28:41;17.50;;;6.40;;
72198;SDS011;60103;51.014;16.992;2023-05-23T12:31:14;13.00;;;6.00;;
72198;SDS011;60103;51.014;16.992;2023-05-23T12:33:45;11.90;;;6.30;;
72198;SDS011;60103;51.014;16.992;2023-05-23T12:36:21;11.20;;;5.90;;
72198;SDS011;60103;51.014;16.992;2023-05-23T12:38:52;12.30;;;6.30;;
72198;SDS011;60103;51.014;16.992;2023-05-23T12:41:21;12.40;;;6.10;;
72198;SDS011;60103;51.014;16.992;2023-05-23T12:43:51;12.30;;;6.20;;
72198;SDS011;60103;51.014;16.992;2023-05-23T12:46:22;12.90;;;6.20;;
72198;SDS011;60103;51.014;16.992;2023-05-23T12:48:52;11.00;;;5.60;;
72198;SDS011;60103;51.014;16.992;2023-05-23T12:51:21;11.70;;;5.80;;
72198;SDS011;60103;51.014;16.992;2023-05-23T12:53:50;12.10;;;5.60;;
72198;SDS011;60103;51.014;16.992;2023-05-23T12:56:20;10.70;;;5.40;;
72198;SDS011;60103;51.014;16.992;2023-05-23T12:58:49;11.20;;;5.20;;
72198;SDS011;60103;51.014;16.992;2023-05-23T13:01:19;10.10;;;5.00;;
72198;SDS011;60103;51.014;16.992;2023-05-23T13:03:49;11.60;;;5.40;;
72198;SDS011;60103;51.014;16.992;2023-05-23T13:06:18;12.20;;;5.30;;
72198;SDS011;60103;51.014;16.992;2023-05-23T13:08:47;11.40;;;5.60;;
72198;SDS011;60103;51.014;16.992;2023-05-23T13:11:19;12.60;;;5.20;;
72198;SDS011;60103;51.014;16.992;2023-05-23T13:13:50;10.60;;;5.40;;
72198;SDS011;60103;51.014;16.992;2023-05-23T13:16:20;11.80;;;5.00;;
72198;SDS011;60103;51.014;16.992;2023-05-23T13:18:50;10.60;;;5.00;;
72198;SDS011;60103;51.014;16.992;2023-05-23T13:21:19;10.70;;;5.50;;
72198;SDS011;60103;51.014;16.992;2023-05-23T13:23:49;11.00;;;5.70;;
72198;SDS011;60103;51.014;16.992;2023-05-23T13:26:19;10.60;;;5.30;;
72198;SDS011;60103;51.014;16.992;2023-05-23T13:28:49;10.60;;;5.10;;
72198;SDS011;60103;51.014;16.992;2023-05-23T13:31:18;11.30;;;5.50;;
72198;SDS011;60103;51.014;16.992;2023-05-23T13:33:47;12.80;;;6.00;;
72198;SDS011;60103;51.014;16.992;2023-05-23T13:36:16;11.60;;;5.70;;
72198;SDS011;60103;51.014;16.992;2023-05-23T13:38:45;10.60;;;5.10;;
72198;SDS011;60103;51.014;16.992;2023-05-23T13:41:14;11.50;;;5.70;;
72198;SDS011;60103;51.014;16.992;2023-05-23T13:43:44;10.80;;;5.50;;
72198;SDS011;60103;51.014;16.992;2023-05-23T13:46:13;11.90;;;6.00;;
72198;SDS011;60103;51.014;16.992;2023-05-23T13:48:42;10.70;;;5.30;;
72198;SDS011;60103;51.014;16.992;2023-05-23T13:51:11;12.10;;;5.80;;
72198;SDS011;60103;51.014;16.992;2023-05-23T13:53:41;12.40;;;6.20;;
72198;SDS011;60103;51.014;16.992;2023-05-23T13:56:10;12.00;;;6.50;;
72198;SDS011;60103;51.014;16.992;2023-05-23T13:58:39;13.00;;;6.20;;
72198;SDS011;60103;51.014;16.992;2023-05-23T14:01:10;11.30;;;5.70;;
72198;SDS011;60103;51.014;16.992;2023-05-23T14:03:39;11.90;;;6.10;;
72198;SDS011;60103;51.014;16.992;2023-05-23T14:06:11;10.80;;;5.70;;
72198;SDS011;60103;51.014;16.992;2023-05-23T14:08:40;12.00;;;5.70;;
72198;SDS011;60103;51.014;16.992;2023-05-23T14:11:09;10.40;;;5.80;;
72198;SDS011;60103;51.014;16.992;2023-05-23T14:13:38;16.50;;;5.50;;
72198;SDS011;60103;51.014;16.992;2023-05-23T14:16:07;9.80;;;5.00;;
72198;SDS011;60103;51.014;16.992;2023-05-23T14:18:37;11.00;;;5.60;;
72198;SDS011;60103;51.014;16.992;2023-05-23T14:21:06;15.10;;;6.10;;
72198;SDS011;60103;51.014;16.992;2023-05-23T14:23:35;10.90;;;5.90;;
72198;SDS011;60103;51.014;16.992;2023-05-23T14:26:04;11.80;;;5.60;;
72198;SDS011;60103;51.014;16.992;2023-05-23T14:28:34;13.40;;;6.00;;
72198;SDS011;60103;51.014;16.992;2023-05-23T14:31:03;10.30;;;5.70;;
72198;SDS011;60103;51.014;16.992;2023-05-23T14:33:32;12.50;;;6.40;;
72198;SDS011;60103;51.014;16.992;2023-05-23T14:36:02;11.40;;;6.30;;
72198;SDS011;60103;51.014;16.992;2023-05-23T14:38:31;11.20;;;6.30;;
72198;SDS011;60103;51.014;16.992;2023-05-23T14:41:00;12.60;;;5.90;;
72198;SDS011;60103;51.014;16.992;2023-05-23T14:43:30;13.30;;;6.60;;
72198;SDS011;60103;51.014;16.992;2023-05-23T14:46:00;13.90;;;6.70;;
72198;SDS011;60103;51.014;16.992;2023-05-23T14:48:31;12.40;;;6.70;;
72198;SDS011;60103;51.014;16.992;2023-05-23T14:51:07;12.70;;;6.50;;
72198;SDS011;60103;51.014;16.992;2023-05-23T14:53:57;15.30;;;7.90;;
72198;SDS011;60103;51.014;16.992;2023-05-23T14:56:27;13.60;;;7.00;;
72198;SDS011;60103;51.014;16.992;2023-05-23T14:58:57;12.10;;;7.20;;
72198;SDS011;60103;51.014;16.992;2023-05-23T15:01:28;15.90;;;7.30;;
72198;SDS011;60103;51.014;16.992;2023-05-23T15:03:57;13.00;;;6.90;;
72198;SDS011;60103;51.014;16.992;2023-05-23T15:06:27;15.50;;;7.20;;
72198;SDS011;60103;51.014;16.992;2023-05-23T15:08:57;15.40;;;7.60;;
72198;SDS011;60103;51.014;16.992;2023-05-23T15:11:27;13.30;;;6.90;;
72198;SDS011;60103;51.014;16.992;2023-05-23T15:13:56;12.80;;;7.10;;